Time;durP1;ratioP1;P1;durP2;ratioP2;P2;SDS_P1;SDS_P2;PMS_P1;PMS_P2;Temp;Humidity;BMP_temperature;BMP_pressure;BME280_temperature;BME280_humidity;BME280_pressure;Samples;Min_cycle;Max_cycle;Signal;HPM_P1;HPM_P2
2021/09/03 00:00:22;;;;;;;16.45;9.02;;;;;;;;;;4991300;28;20030;-75
2021/09/03 00:02:48;;;;;;;13.75;9.25;;;;;;;;;;4989327;28;20026;-75
2021/09/03 00:05:19;;;;;;;16.90;8.52;;;;;;;;;;4990290;28;20030;-75
2021/09/03 00:07:45;;;;;;;14.98;9.02;;;;;;;;;;4973247;28;20126;-75
2021/09/03 00:10:14;;;;;;;17.48;8.00;;;;;;;;;;4972997;28;20030;-75
2021/09/03 00:12:40;;;;;;;15.18;8.40;;;;;;;;;;4990717;28;20497;-75
2021/09/03 00:15:09;;;;;;;16.10;9.32;;;;;;;;;;4990420;28;20022;-74
2021/09/03 00:17:35;;;;;;;17.85;8.43;;;;;;;;;;4972874;28;20026;-75
2021/09/03 00:20:01;;;;;;;16.00;9.10;;;;;;;;;;4990473;28;20471;-76
2021/09/03 00:22:26;;;;;;;15.57;8.45;;;;;;;;;;4972591;28;20037;-75
2021/09/03 00:24:52;;;;;;;21.63;8.73;;;;;;;;;;4972921;28;20034;-75
2021/09/03 00:27:17;;;;;;;13.85;8.65;;;;;;;;;;4990105;28;20104;-75
2021/09/03 00:29:43;;;;;;;19.33;8.77;;;;;;;;;;4989976;28;20030;-75
2021/09/03 00:32:08;;;;;;;15.57;8.55;;;;;;;;;;4972430;28;20610;-74
2021/09/03 00:34:34;;;;;;;16.83;9.45;;;;;;;;;;4990605;28;20481;-75
2021/09/03 00:36:59;;;;;;;18.13;8.73;;;;;;;;;;4990299;28;20026;-75
2021/09/03 00:39:26;;;;;;;14.00;7.95;;;;;;;;;;4972529;28;20030;-74
2021/09/03 00:41:52;;;;;;;19.02;8.27;;;;;;;;;;4990085;28;20034;-75
2021/09/03 00:44:17;;;;;;;13.45;7.85;;;;;;;;;;4972495;28;20057;-76
2021/09/03 00:46:43;;;;;;;14.00;8.45;;;;;;;;;;4990167;28;20026;-75
2021/09/03 00:49:09;;;;;;;14.90;8.95;;;;;;;;;;4988918;28;20566;-75
2021/09/03 00:51:34;;;;;;;19.77;8.35;;;;;;;;;;4972837;28;20497;-75
2021/09/03 00:54:00;;;;;;;18.27;9.05;;;;;;;;;;4988764;28;20022;-72
2021/09/03 00:56:25;;;;;;;13.57;8.75;;;;;;;;;;4972362;28;20030;-72
2021/09/03 00:58:51;;;;;;;16.92;8.25;;;;;;;;;;4972706;28;20023;-72
2021/09/03 01:01:19;;;;;;;22.45;9.02;;;;;;;;;;4989834;28;20073;-72
2021/09/03 01:03:45;;;;;;;14.52;8.63;;;;;;;;;;4989119;28;20029;-72
2021/09/03 01:06:11;;;;;;;17.85;8.68;;;;;;;;;;4990034;28;20030;-71
2021/09/03 01:08:36;;;;;;;16.65;8.82;;;;;;;;;;4972808;28;20038;-71
2021/09/03 01:11:02;;;;;;;16.27;8.98;;;;;;;;;;4972776;28;20679;-72
2021/09/03 01:13:28;;;;;;;16.63;9.25;;;;;;;;;;4972450;28;20484;-72
2021/09/03 01:15:53;;;;;;;15.57;8.68;;;;;;;;;;4972409;28;20026;-71
2021/09/03 01:18:19;;;;;;;16.92;8.85;;;;;;;;;;4988273;28;20042;-73
2021/09/03 01:20:46;;;;;;;19.50;8.82;;;;;;;;;;4972301;28;20113;-71
2021/09/03 01:23:13;;;;;;;13.32;8.18;;;;;;;;;;4989529;28;20514;-72
2021/09/03 01:25:39;;;;;;;16.23;9.38;;;;;;;;;;4971888;28;20439;-71
2021/09/03 01:28:04;;;;;;;16.02;8.85;;;;;;;;;;4989865;28;20085;-74
2021/09/03 01:30:29;;;;;;;13.13;8.32;;;;;;;;;;4989781;28;20391;-74
2021/09/03 01:32:55;;;;;;;14.43;9.88;;;;;;;;;;4989808;28;20032;-73
2021/09/03 01:35:20;;;;;;;16.60;8.85;;;;;;;;;;4989738;28;20027;-74
2021/09/03 01:37:46;;;;;;;15.10;9.00;;;;;;;;;;4972736;28;20692;-74
2021/09/03 01:40:12;;;;;;;16.10;9.25;;;;;;;;;;4991941;28;20034;-73
2021/09/03 01:42:38;;;;;;;15.55;8.80;;;;;;;;;;4993903;28;20034;-74
2021/09/03 01:45:04;;;;;;;19.15;9.02;;;;;;;;;;4975652;28;20031;-74
2021/09/03 01:47:30;;;;;;;17.67;9.50;;;;;;;;;;4993074;28;20092;-73
2021/09/03 01:49:56;;;;;;;17.98;9.98;;;;;;;;;;4993312;28;20037;-73
2021/09/03 01:52:22;;;;;;;13.93;9.15;;;;;;;;;;4993127;28;20609;-74
2021/09/03 01:54:49;;;;;;;21.05;9.77;;;;;;;;;;4993383;28;20110;-72
2021/09/03 01:57:14;;;;;;;15.30;8.43;;;;;;;;;;4975324;28;20120;-74
2021/09/03 01:59:40;;;;;;;17.85;9.40;;;;;;;;;;4975444;28;20142;-75
2021/09/03 02:02:06;;;;;;;15.75;8.95;;;;;;;;;;4991887;28;20546;-74
2021/09/03 02:04:31;;;;;;;19.65;9.32;;;;;;;;;;4993088;28;20076;-73
2021/09/03 02:06:56;;;;;;;15.23;9.10;;;;;;;;;;4992925;28;20034;-73
2021/09/03 02:09:22;;;;;;;17.83;9.52;;;;;;;;;;4991434;28;20030;-74
2021/09/03 02:11:48;;;;;;;15.82;9.15;;;;;;;;;;4993023;28;20037;-72
2021/09/03 02:14:13;;;;;;;16.42;8.98;;;;;;;;;;4991712;28;20034;-73
2021/09/03 02:16:39;;;;;;;17.40;8.80;;;;;;;;;;4993000;28;20030;-72
2021/09/03 02:19:05;;;;;;;21.95;9.93;;;;;;;;;;4992941;28;20045;-73
2021/09/03 02:21:31;;;;;;;20.00;9.07;;;;;;;;;;4975740;28;20058;-73
2021/09/03 02:23:57;;;;;;;17.97;8.90;;;;;;;;;;4993064;28;20074;-72
2021/09/03 02:26:23;;;;;;;13.70;8.18;;;;;;;;;;4992941;28;20034;-72
2021/09/03 02:28:48;;;;;;;18.63;9.70;;;;;;;;;;4991474;28;20053;-72
2021/09/03 02:31:14;;;;;;;18.08;9.50;;;;;;;;;;4992815;28;20038;-72
2021/09/03 02:33:40;;;;;;;19.88;9.23;;;;;;;;;;4975133;28;20036;-72
2021/09/03 02:36:05;;;;;;;17.15;9.25;;;;;;;;;;4991416;28;20467;-72
2021/09/03 02:38:31;;;;;;;14.43;8.73;;;;;;;;;;4991133;28;20034;-73
2021/09/03 02:40:56;;;;;;;18.75;9.80;;;;;;;;;;4992736;28;20497;-73
2021/09/03 02:43:22;;;;;;;13.60;9.50;;;;;;;;;;4992596;28;20514;-71
2021/09/03 02:45:47;;;;;;;13.70;8.52;;;;;;;;;;4992551;28;20026;-73
2021/09/03 02:48:13;;;;;;;15.82;8.85;;;;;;;;;;4992612;28;20034;-73
2021/09/03 02:50:38;;;;;;;14.03;8.83;;;;;;;;;;4974738;28;20034;-72
2021/09/03 02:53:04;;;;;;;18.60;9.87;;;;;;;;;;4992341;28;20033;-73
2021/09/03 02:55:29;;;;;;;17.97;8.97;;;;;;;;;;4992187;28;20050;-72
2021/09/03 02:57:56;;;;;;;15.50;8.70;;;;;;;;;;4991264;28;20470;-72
2021/09/03 03:00:22;;;;;;;16.00;8.90;;;;;;;;;;4974928;28;20030;-73
2021/09/03 03:02:48;;;;;;;14.65;9.02;;;;;;;;;;4974741;28;20368;-72
2021/09/03 03:05:13;;;;;;;13.77;8.30;;;;;;;;;;4990591;28;20037;-72
2021/09/03 03:07:39;;;;;;;17.93;8.30;;;;;;;;;;4992597;28;20037;-73
2021/09/03 03:10:06;;;;;;;17.17;9.10;;;;;;;;;;4975096;28;20030;-72
2021/09/03 03:12:32;;;;;;;16.27;8.67;;;;;;;;;;4992404;28;20092;-72
2021/09/03 03:14:57;;;;;;;14.32;8.18;;;;;;;;;;4974876;28;20061;-72
2021/09/03 03:17:23;;;;;;;17.80;9.38;;;;;;;;;;4991782;28;20090;-72
2021/09/03 03:19:49;;;;;;;16.95;8.52;;;;;;;;;;4991859;28;20034;-72
2021/09/03 03:22:15;;;;;;;16.13;8.50;;;;;;;;;;4992458;28;20042;-72
2021/09/03 03:24:41;;;;;;;18.57;9.57;;;;;;;;;;4974165;28;20041;-72
2021/09/03 03:27:06;;;;;;;21.27;10.00;;;;;;;;;;4991266;28;20042;-73
2021/09/03 03:29:32;;;;;;;16.40;8.90;;;;;;;;;;4973453;28;20097;-71
2021/09/03 03:31:58;;;;;;;13.70;8.97;;;;;;;;;;4973927;28;20037;-72
2021/09/03 03:34:23;;;;;;;17.37;8.60;;;;;;;;;;4991415;28;20379;-72
2021/09/03 03:36:48;;;;;;;13.77;9.13;;;;;;;;;;4974644;28;20097;-71
2021/09/03 03:39:14;;;;;;;16.93;9.23;;;;;;;;;;4991057;28;20026;-72
2021/09/03 03:41:39;;;;;;;17.60;10.03;;;;;;;;;;4973704;28;20030;-72
2021/09/03 03:44:05;;;;;;;14.23;9.37;;;;;;;;;;4991206;28;20085;-71
2021/09/03 03:46:31;;;;;;;14.60;8.87;;;;;;;;;;4990926;28;20489;-72
2021/09/03 03:48:57;;;;;;;23.93;9.50;;;;;;;;;;4973587;28;20309;-73
2021/09/03 03:51:23;;;;;;;18.27;10.13;;;;;;;;;;4973694;28;20030;-75
2021/09/03 03:53:49;;;;;;;14.73;8.03;;;;;;;;;;4957363;28;20395;-74
2021/09/03 03:56:15;;;;;;;15.33;9.20;;;;;;;;;;4991015;28;20038;-73
2021/09/03 03:58:42;;;;;;;15.37;8.87;;;;;;;;;;4991174;28;20065;-75
2021/09/03 04:01:08;;;;;;;15.10;8.87;;;;;;;;;;4991223;28;20390;-74
2021/09/03 04:03:33;;;;;;;21.10;9.70;;;;;;;;;;4991213;28;20034;-74
2021/09/03 04:05:59;;;;;;;21.10;9.57;;;;;;;;;;4973885;28;20109;-73
2021/09/03 04:08:24;;;;;;;17.20;9.70;;;;;;;;;;4973596;28;20030;-74
2021/09/03 04:10:50;;;;;;;16.63;8.77;;;;;;;;;;4990821;28;20030;-74
2021/09/03 04:13:15;;;;;;;20.97;9.83;;;;;;;;;;4990890;28;20042;-72
2021/09/03 04:15:41;;;;;;;17.90;9.10;;;;;;;;;;4990871;28;20466;-74
2021/09/03 04:18:06;;;;;;;15.93;9.57;;;;;;;;;;4989238;28;20533;-74
2021/09/03 04:20:32;;;;;;;16.87;9.43;;;;;;;;;;4990403;28;20113;-74
2021/09/03 04:22:57;;;;;;;18.20;8.70;;;;;;;;;;4989596;28;20030;-74
2021/09/03 04:25:23;;;;;;;16.63;7.97;;;;;;;;;;4972834;28;20034;-75
2021/09/03 04:27:48;;;;;;;22.43;9.33;;;;;;;;;;4990401;28;20054;-75
2021/09/03 04:30:14;;;;;;;14.30;9.30;;;;;;;;;;4990430;28;20490;-75
2021/09/03 04:32:40;;;;;;;32.60;10.40;;;;;;;;;;4990240;28;20030;-76
2021/09/03 04:35:06;;;;;;;16.20;9.07;;;;;;;;;;4990342;28;20058;-75
2021/09/03 04:37:37;;;;;;;18.87;9.57;;;;;;;;;;4989870;28;20033;-76
2021/09/03 04:40:03;;;;;;;14.83;9.30;;;;;;;;;;4974055;28;20030;-76
2021/09/03 04:42:28;;;;;;;17.53;9.77;;;;;;;;;;4993627;28;20084;-74
2021/09/03 04:44:54;;;;;;;17.17;8.80;;;;;;;;;;4993875;28;20251;-76
2021/09/03 04:47:19;;;;;;;18.13;9.60;;;;;;;;;;4976049;28;20069;-74
2021/09/03 04:49:45;;;;;;;23.70;9.87;;;;;;;;;;4980696;28;20030;-75
2021/09/03 04:52:10;;;;;;;19.97;10.27;;;;;;;;;;4969701;28;20038;-76
2021/09/03 04:54:36;;;;;;;22.23;9.73;;;;;;;;;;4957583;28;20024;-75
2021/09/03 04:57:01;;;;;;;24.73;9.27;;;;;;;;;;4939764;28;20037;-76
2021/09/03 04:59:27;;;;;;;27.13;9.53;;;;;;;;;;4971025;28;20302;-75
2021/09/03 05:01:52;;;;;;;23.50;10.63;;;;;;;;;;4970272;28;20031;-75
2021/09/03 05:04:18;;;;;;;17.50;9.75;;;;;;;;;;4970691;28;20034;-76
2021/09/03 05:06:43;;;;;;;17.23;9.80;;;;;;;;;;4970507;28;20030;-75
2021/09/03 05:09:09;;;;;;;16.87;9.27;;;;;;;;;;4968102;28;20113;-74
2021/09/03 05:11:34;;;;;;;20.33;9.40;;;;;;;;;;4968073;28;20053;-75
2021/09/03 05:13:59;;;;;;;12.90;8.93;;;;;;;;;;4953362;28;20494;-73
2021/09/03 05:16:25;;;;;;;16.13;9.67;;;;;;;;;;4973896;28;20122;-71
2021/09/03 05:18:51;;;;;;;19.40;9.97;;;;;;;;;;4973711;28;20365;-71
2021/09/03 05:21:16;;;;;;;20.97;9.67;;;;;;;;;;4975572;28;20433;-73
2021/09/03 05:23:43;;;;;;;17.97;10.07;;;;;;;;;;4973488;28;20061;-71
2021/09/03 05:26:09;;;;;;;20.77;9.95;;;;;;;;;;4973742;28;20037;-70
2021/09/03 05:28:36;;;;;;;20.40;9.47;;;;;;;;;;4973689;28;20399;-72
2021/09/03 05:31:01;;;;;;;19.23;9.87;;;;;;;;;;4982966;28;20046;-71
2021/09/03 05:33:27;;;;;;;58.72;14.27;;;;;;;;;;4992308;28;20074;-71
2021/09/03 05:35:52;;;;;;;29.63;9.60;;;;;;;;;;4993526;28;20022;-70
2021/09/03 05:38:18;;;;;;;15.05;9.70;;;;;;;;;;4964096;28;20387;-73
2021/09/03 05:40:43;;;;;;;20.30;10.00;;;;;;;;;;4956223;28;20475;-72
2021/09/03 05:43:09;;;;;;;16.02;8.88;;;;;;;;;;4956293;28;20061;-72
2021/09/03 05:45:36;;;;;;;19.43;10.13;;;;;;;;;;4972722;28;20093;-70
2021/09/03 05:48:02;;;;;;;28.43;9.73;;;;;;;;;;4977879;28;20026;-72
2021/09/03 05:50:29;;;;;;;17.93;10.33;;;;;;;;;;4954593;28;20022;-72
2021/09/03 05:52:55;;;;;;;17.20;9.70;;;;;;;;;;4955377;28;20027;-71
2021/09/03 05:55:21;;;;;;;19.23;9.75;;;;;;;;;;4973440;28;20037;-71
2021/09/03 05:57:48;;;;;;;16.80;9.80;;;;;;;;;;4955656;28;20471;-72
2021/09/03 06:00:14;;;;;;;24.33;10.23;;;;;;;;;;4957450;28;20120;-72
2021/09/03 06:02:39;;;;;;;16.02;9.43;;;;;;;;;;4973504;28;20062;-72
2021/09/03 06:05:05;;;;;;;17.90;9.65;;;;;;;;;;4974373;28;20037;-71
2021/09/03 06:07:31;;;;;;;21.10;10.73;;;;;;;;;;4956112;28;20439;-71
2021/09/03 06:09:56;;;;;;;20.15;10.90;;;;;;;;;;4973919;28;20228;-72
2021/09/03 06:12:22;;;;;;;16.90;9.98;;;;;;;;;;4956076;28;20098;-72
2021/09/03 06:14:47;;;;;;;19.67;10.52;;;;;;;;;;4973547;28;20019;-70
2021/09/03 06:17:13;;;;;;;18.50;10.52;;;;;;;;;;4960584;28;20467;-72
2021/09/03 06:19:39;;;;;;;15.80;9.50;;;;;;;;;;4966502;28;20027;-71
2021/09/03 06:22:05;;;;;;;19.70;9.75;;;;;;;;;;4955870;28;20129;-72
2021/09/03 06:24:30;;;;;;;21.73;9.98;;;;;;;;;;4973082;28;20102;-71
2021/09/03 06:27:04;;;;;;;18.88;10.27;;;;;;;;;;4972113;28;20026;-70
2021/09/03 06:29:39;;;;;;;21.48;10.88;;;;;;;;;;4972178;28;20062;-70
2021/09/03 06:32:06;;;;;;;20.63;10.75;;;;;;;;;;4955400;28;20039;-72
2021/09/03 06:34:34;;;;;;;20.60;10.45;;;;;;;;;;4972519;28;20063;-73
2021/09/03 06:36:59;;;;;;;21.05;10.60;;;;;;;;;;4973277;28;20039;-72
2021/09/03 06:39:25;;;;;;;17.45;10.52;;;;;;;;;;4971618;28;20041;-71
2021/09/03 06:41:51;;;;;;;23.08;12.52;;;;;;;;;;4967369;28;20063;-72
2021/09/03 06:44:17;;;;;;;19.85;10.95;;;;;;;;;;4970753;28;20066;-72
2021/09/03 06:46:43;;;;;;;19.27;11.20;;;;;;;;;;4949943;28;20047;-71
2021/09/03 06:49:08;;;;;;;19.80;11.10;;;;;;;;;;4955779;28;20027;-71
2021/09/03 06:51:34;;;;;;;22.33;11.45;;;;;;;;;;4971961;28;20447;-71
2021/09/03 06:53:59;;;;;;;21.40;12.93;;;;;;;;;;4972850;28;20074;-73
2021/09/03 06:56:25;;;;;;;29.42;12.48;;;;;;;;;;4966126;28;20053;-72
2021/09/03 06:58:50;;;;;;;18.90;10.93;;;;;;;;;;4974569;28;20062;-71
2021/09/03 07:01:16;;;;;;;18.90;11.68;;;;;;;;;;4975589;28;20035;-72
2021/09/03 07:03:43;;;;;;;17.02;11.23;;;;;;;;;;4953334;28;20117;-72
2021/09/03 07:06:08;;;;;;;18.25;10.73;;;;;;;;;;4954322;28;20046;-73
2021/09/03 07:08:34;;;;;;;21.60;11.20;;;;;;;;;;4971743;28;20035;-72
2021/09/03 07:10:59;;;;;;;25.83;13.68;;;;;;;;;;4950531;28;20053;-73
2021/09/03 07:13:25;;;;;;;27.73;11.77;;;;;;;;;;4968046;28;20038;-72
2021/09/03 07:15:50;;;;;;;24.23;10.95;;;;;;;;;;4969574;28;20308;-72
2021/09/03 07:18:16;;;;;;;23.08;11.18;;;;;;;;;;4968802;28;20416;-72
2021/09/03 07:20:42;;;;;;;23.35;13.45;;;;;;;;;;4969538;28;20113;-73
2021/09/03 07:23:08;;;;;;;20.70;10.95;;;;;;;;;;4970735;28;20497;-73
2021/09/03 07:25:34;;;;;;;18.48;12.48;;;;;;;;;;4980562;28;20144;-72
2021/09/03 07:27:59;;;;;;;23.92;12.02;;;;;;;;;;4972053;28;20299;-73
2021/09/03 07:30:25;;;;;;;19.45;11.68;;;;;;;;;;4984216;28;20034;-73
2021/09/03 07:32:50;;;;;;;24.77;11.45;;;;;;;;;;4990415;28;20467;-71
2021/09/03 07:35:17;;;;;;;25.00;13.40;;;;;;;;;;4990840;28;20083;-72
2021/09/03 07:37:42;;;;;;;22.27;12.93;;;;;;;;;;4990281;28;20051;-73
2021/09/03 07:40:09;;;;;;;39.17;14.13;;;;;;;;;;4972800;28;20288;-71
2021/09/03 07:42:35;;;;;;;22.92;13.15;;;;;;;;;;4988374;28;20038;-73
2021/09/03 07:45:01;;;;;;;23.70;13.25;;;;;;;;;;4976038;28;20030;-72
2021/09/03 07:47:27;;;;;;;26.08;14.00;;;;;;;;;;4970887;28;20035;-72
2021/09/03 07:49:53;;;;;;;25.75;13.15;;;;;;;;;;4953593;28;20061;-72
2021/09/03 07:52:19;;;;;;;25.00;13.77;;;;;;;;;;4970895;28;20077;-71
2021/09/03 07:54:45;;;;;;;22.63;13.85;;;;;;;;;;4970974;28;20459;-71
2021/09/03 07:57:11;;;;;;;24.77;14.45;;;;;;;;;;4971257;28;20037;-71
2021/09/03 07:59:37;;;;;;;26.65;13.88;;;;;;;;;;4954038;28;20463;-71
2021/09/03 08:02:03;;;;;;;21.45;12.98;;;;;;;;;;4937776;28;20038;-71
2021/09/03 08:04:30;;;;;;;25.15;12.98;;;;;;;;;;4971181;28;20130;-71
2021/09/03 08:06:56;;;;;;;24.33;12.65;;;;;;;;;;4953866;28;20109;-72
2021/09/03 08:09:23;;;;;;;28.63;11.75;;;;;;;;;;4971258;28;20027;-72
2021/09/03 08:11:48;;;;;;;24.48;13.32;;;;;;;;;;4971155;28;20538;-72
2021/09/03 08:14:14;;;;;;;25.10;12.43;;;;;;;;;;4953971;28;20058;-72
2021/09/03 08:16:39;;;;;;;25.60;12.57;;;;;;;;;;4953253;28;20105;-72
2021/09/03 08:19:06;;;;;;;25.60;12.60;;;;;;;;;;4971416;28;20471;-72
2021/09/03 08:21:31;;;;;;;28.45;13.02;;;;;;;;;;4953614;28;20026;-73
2021/09/03 08:23:57;;;;;;;26.30;13.13;;;;;;;;;;4953644;28;20066;-72
2021/09/03 08:26:22;;;;;;;23.55;12.48;;;;;;;;;;4953724;28;20037;-72
2021/09/03 08:28:48;;;;;;;30.58;13.38;;;;;;;;;;4971040;28;20121;-72
2021/09/03 08:31:14;;;;;;;25.85;12.18;;;;;;;;;;4954460;28;20113;-72
2021/09/03 08:33:39;;;;;;;20.23;12.07;;;;;;;;;;4954282;28;20029;-72
2021/09/03 08:36:05;;;;;;;120.82;18.42;;;;;;;;;;4953674;28;20035;-70
2021/09/03 08:38:31;;;;;;;55.22;14.80;;;;;;;;;;4964858;28;20031;-71
2021/09/03 08:40:57;;;;;;;38.55;13.00;;;;;;;;;;4951599;29;20035;-72
2021/09/03 08:43:23;;;;;;;31.25;14.85;;;;;;;;;;4952309;29;20027;-70
2021/09/03 08:45:50;;;;;;;22.55;11.10;;;;;;;;;;4934518;29;20030;-72
2021/09/03 08:48:20;;;;;;;21.90;12.05;;;;;;;;;;4952073;29;20035;-72
2021/09/03 08:50:49;;;;;;;27.58;12.35;;;;;;;;;;4950805;29;20039;-74
2021/09/03 08:53:17;;;;;;;20.50;11.82;;;;;;;;;;4934524;29;20130;-71
2021/09/03 08:55:47;;;;;;;27.58;16.88;;;;;;;;;;4951313;29;20026;-73
2021/09/03 08:58:13;;;;;;;16.35;9.60;;;;;;;;;;4951388;29;20027;-72
2021/09/03 09:00:40;;;;;;;17.38;9.45;;;;;;;;;;4950856;29;20392;-72
2021/09/03 09:03:13;;;;;;;19.13;9.80;;;;;;;;;;4950799;29;20039;-73
2021/09/03 09:05:55;;;;;;;15.18;9.65;;;;;;;;;;4933937;29;20380;-72
2021/09/03 09:08:24;;;;;;;16.90;8.63;;;;;;;;;;4951560;29;20094;-72
2021/09/03 09:10:54;;;;;;;13.32;7.95;;;;;;;;;;4949711;29;20035;-72
2021/09/03 09:13:26;;;;;;;21.17;9.70;;;;;;;;;;4951239;29;20027;-73
2021/09/03 09:16:07;;;;;;;17.77;8.50;;;;;;;;;;4951048;29;20030;-73
2021/09/03 09:18:37;;;;;;;19.43;8.97;;;;;;;;;;4951649;29;20030;-73
2021/09/03 09:21:07;;;;;;;17.05;8.10;;;;;;;;;;4958988;28;20574;-72
2021/09/03 09:23:53;;;;;;;13.98;8.32;;;;;;;;;;4952973;28;20027;-73
2021/09/03 09:26:23;;;;;;;13.23;7.93;;;;;;;;;;4953272;28;20130;-72
2021/09/03 09:28:49;;;;;;;16.15;9.98;;;;;;;;;;4970663;28;20050;-72
2021/09/03 09:31:48;;;;;;;22.10;10.85;;;;;;;;;;4970715;28;20481;-73
2021/09/03 09:34:17;;;;;;;18.80;9.15;;;;;;;;;;4918874;28;20472;-72
2021/09/03 09:36:43;;;;;;;14.20;9.35;;;;;;;;;;4971212;28;20034;-72
2021/09/03 09:39:09;;;;;;;26.05;10.57;;;;;;;;;;4971368;28;20468;-71
2021/09/03 09:41:35;;;;;;;29.92;10.95;;;;;;;;;;4970993;28;20055;-72
2021/09/03 09:44:00;;;;;;;14.70;9.55;;;;;;;;;;4970592;28;20085;-73
2021/09/03 09:46:27;;;;;;;16.38;8.65;;;;;;;;;;4970009;28;20049;-72
2021/09/03 09:49:02;;;;;;;18.52;10.00;;;;;;;;;;4969961;28;20030;-71
2021/09/03 09:51:27;;;;;;;18.67;8.88;;;;;;;;;;4937703;28;20045;-72
2021/09/03 09:54:01;;;;;;;19.25;11.02;;;;;;;;;;4970467;28;20027;-73
2021/09/03 09:56:30;;;;;;;15.75;8.88;;;;;;;;;;4970170;28;20038;-73
2021/09/03 09:58:57;;;;;;;16.75;9.00;;;;;;;;;;4970026;28;20420;-72
2021/09/03 10:01:23;;;;;;;28.10;11.25;;;;;;;;;;4972139;28;20387;-72
2021/09/03 10:03:50;;;;;;;20.35;9.70;;;;;;;;;;4973203;28;20034;-72
2021/09/03 10:06:17;;;;;;;12.48;8.07;;;;;;;;;;4973894;28;20027;-72
2021/09/03 10:08:48;;;;;;;18.02;10.32;;;;;;;;;;4939821;28;20078;-73
2021/09/03 10:11:17;;;;;;;;;;;;;;;;;;4973589;28;20038;-72
2021/09/03 10:13:43;;;;;;;14.85;8.65;;;;;;;;;;4972951;28;20412;-71
2021/09/03 10:16:09;;;;;;;19.20;7.97;;;;;;;;;;4955875;28;20026;-73
2021/09/03 10:18:38;;;;;;;22.50;8.57;;;;;;;;;;4973547;28;20070;-72
2021/09/03 10:21:04;;;;;;;13.48;7.47;;;;;;;;;;4973112;28;20037;-71
2021/09/03 10:23:52;;;;;;;16.77;6.95;;;;;;;;;;4973034;28;20390;-73
2021/09/03 10:26:23;;;;;;;16.75;7.30;;;;;;;;;;4973394;28;20121;-73
2021/09/03 10:28:48;;;;;;;11.33;7.20;;;;;;;;;;4973166;28;20591;-72
2021/09/03 10:31:19;;;;;;;13.05;6.93;;;;;;;;;;4974159;28;20090;-71
2021/09/03 10:33:45;;;;;;;10.97;6.00;;;;;;;;;;4973415;28;20035;-73
2021/09/03 10:36:11;;;;;;;17.70;7.97;;;;;;;;;;4955459;28;20288;-73
2021/09/03 10:38:43;;;;;;;17.23;6.88;;;;;;;;;;4955659;28;20349;-72
2021/09/03 10:41:08;;;;;;;11.93;6.95;;;;;;;;;;4972969;28;20089;-73
2021/09/03 10:43:44;;;;;;;11.68;7.25;;;;;;;;;;4973061;28;20031;-72
2021/09/03 10:46:13;;;;;;;16.77;8.13;;;;;;;;;;4973180;28;20066;-72
2021/09/03 10:48:38;;;;;;;12.43;7.18;;;;;;;;;;4972639;28;20053;-73
2021/09/03 10:51:05;;;;;;;8.73;6.78;;;;;;;;;;4972892;28;20480;-71
2021/09/03 10:53:41;;;;;;;12.32;6.82;;;;;;;;;;4972945;28;20127;-73
2021/09/03 10:56:13;;;;;;;12.57;6.55;;;;;;;;;;4972872;28;20018;-73
2021/09/03 10:59:02;;;;;;;11.38;6.65;;;;;;;;;;4955235;28;20034;-72
2021/09/03 11:01:30;;;;;;;20.58;8.63;;;;;;;;;;4973324;28;20015;-72
2021/09/03 11:03:56;;;;;;;19.58;8.10;;;;;;;;;;4972812;28;20029;-72
2021/09/03 11:06:25;;;;;;;12.35;7.50;;;;;;;;;;4955430;28;20067;-72
2021/09/03 11:08:56;;;;;;;11.38;7.10;;;;;;;;;;4972492;28;20131;-71
2021/09/03 11:11:22;;;;;;;9.48;6.93;;;;;;;;;;4955304;28;20027;-72
2021/09/03 11:13:50;;;;;;;16.00;7.60;;;;;;;;;;4971655;28;20035;-72
2021/09/03 11:16:38;;;;;;;14.80;6.40;;;;;;;;;;4955000;28;20026;-72
2021/09/03 11:19:09;;;;;;;12.88;7.70;;;;;;;;;;4971981;28;20026;-73
2021/09/03 11:21:42;;;;;;;14.43;7.57;;;;;;;;;;4954494;28;20467;-72
2021/09/03 11:24:09;;;;;;;14.50;6.75;;;;;;;;;;4972215;28;20086;-73
2021/09/03 11:26:36;;;;;;;15.80;6.82;;;;;;;;;;4954719;28;20487;-71
2021/09/03 11:29:29;;;;;;;13.35;8.65;;;;;;;;;;4971840;28;20067;-71
2021/09/03 11:31:59;;;;;;;23.27;9.15;;;;;;;;;;4948472;28;20450;-73
2021/09/03 11:34:52;;;;;;;11.13;7.00;;;;;;;;;;4954242;28;20030;-73
2021/09/03 11:37:31;;;;;;;12.60;7.78;;;;;;;;;;4971971;28;20487;-73
2021/09/03 11:40:17;;;;;;;7.75;5.63;;;;;;;;;;4970514;28;20063;-72
2021/09/03 11:42:53;;;;;;;15.55;6.88;;;;;;;;;;4953937;28;20391;-70
2021/09/03 11:45:18;;;;;;;12.13;7.25;;;;;;;;;;4977394;28;20034;-72
2021/09/03 11:47:52;;;;;;;12.35;6.95;;;;;;;;;;4987490;28;20029;-72
2021/09/03 11:50:28;;;;;;;11.93;6.45;;;;;;;;;;4958747;28;20034;-72
2021/09/03 11:52:55;;;;;;;9.05;5.60;;;;;;;;;;4971526;28;20137;-72
2021/09/03 11:55:21;;;;;;;15.20;6.35;;;;;;;;;;4971758;28;20067;-73
2021/09/03 11:57:57;;;;;;;10.38;6.72;;;;;;;;;;4971858;28;20474;-72
2021/09/03 12:00:36;;;;;;;10.30;6.03;;;;;;;;;;4954079;28;20038;-72
2021/09/03 12:03:10;;;;;;;12.98;6.63;;;;;;;;;;4954642;28;20030;-72
2021/09/03 12:05:37;;;;;;;14.02;7.13;;;;;;;;;;4971504;28;20031;-72
2021/09/03 12:08:35;;;;;;;8.73;6.38;;;;;;;;;;4969824;28;20498;-72
2021/09/03 12:11:07;;;;;;;11.80;6.72;;;;;;;;;;4953940;28;20062;-73
2021/09/03 12:13:44;;;;;;;12.55;6.40;;;;;;;;;;4953836;28;20045;-71
2021/09/03 12:16:21;;;;;;;13.20;6.70;;;;;;;;;;4954062;28;20030;-75
2021/09/03 12:18:57;;;;;;;9.57;6.30;;;;;;;;;;4953774;28;20041;-74
2021/09/03 12:21:27;;;;;;;13.00;6.45;;;;;;;;;;4981989;28;20030;-71
2021/09/03 12:23:52;;;;;;;15.40;6.95;;;;;;;;;;4971601;28;20030;-73
2021/09/03 12:26:23;;;;;;;13.13;6.68;;;;;;;;;;4990664;28;20048;-72
2021/09/03 12:28:52;;;;;;;11.93;7.03;;;;;;;;;;4990005;28;20382;-72
2021/09/03 12:31:28;;;;;;;9.98;5.95;;;;;;;;;;4990456;28;20046;-74
2021/09/03 12:33:56;;;;;;;10.13;6.28;;;;;;;;;;4956889;28;20062;-72
2021/09/03 12:36:29;;;;;;;11.05;6.57;;;;;;;;;;4990741;28;20030;-72
2021/09/03 12:39:00;;;;;;;11.10;6.15;;;;;;;;;;4972843;28;20030;-73
2021/09/03 12:41:31;;;;;;;;;;;;;;;;;;4989734;28;20372;-72
2021/09/03 12:44:24;;;;;;;11.38;5.60;;;;;;;;;;4976317;28;20414;-72
2021/09/03 12:46:51;;;;;;;9.00;5.57;;;;;;;;;;4951725;28;20118;-73
2021/09/03 12:49:26;;;;;;;10.20;6.00;;;;;;;;;;4953418;28;20045;-72
2021/09/03 12:52:05;;;;;;;10.68;5.72;;;;;;;;;;4970710;28;20023;-73
2021/09/03 12:54:31;;;;;;;14.25;5.60;;;;;;;;;;4970885;28;20023;-72
2021/09/03 12:56:56;;;;;;;12.50;6.05;;;;;;;;;;4969225;28;20383;-71
2021/09/03 12:59:23;;;;;;;10.88;5.55;;;;;;;;;;4953211;28;20033;-72
2021/09/03 13:01:50;;;;;;;8.45;5.75;;;;;;;;;;4969154;28;20034;-73
2021/09/03 13:04:17;;;;;;;11.68;5.35;;;;;;;;;;4971004;28;20034;-71
2021/09/03 13:06:46;;;;;;;12.82;4.95;;;;;;;;;;4970495;28;20558;-73
2021/09/03 13:09:11;;;;;;;7.13;4.90;;;;;;;;;;4970531;28;20029;-72
2021/09/03 13:11:39;;;;;;;8.15;6.03;;;;;;;;;;4969526;28;20030;-73
2021/09/03 13:14:05;;;;;;;8.45;5.93;;;;;;;;;;4970778;28;20054;-73
2021/09/03 13:16:36;;;;;;;10.85;5.90;;;;;;;;;;4970957;28;20097;-73
2021/09/03 13:19:05;;;;;;;14.80;5.85;;;;;;;;;;4970928;28;20109;-72
2021/09/03 13:21:30;;;;;;;15.15;7.15;;;;;;;;;;4950157;29;20035;-72
2021/09/03 13:23:56;;;;;;;13.13;6.13;;;;;;;;;;4951486;29;20493;-71
2021/09/03 13:26:22;;;;;;;8.57;5.63;;;;;;;;;;4933991;29;20513;-73
2021/09/03 13:28:47;;;;;;;10.07;6.00;;;;;;;;;;4951048;29;20055;-73
2021/09/03 13:31:19;;;;;;;10.55;5.68;;;;;;;;;;4933750;29;20027;-74
2021/09/03 13:33:45;;;;;;;10.80;5.47;;;;;;;;;;4951198;29;20051;-73
2021/09/03 13:36:12;;;;;;;8.73;5.00;;;;;;;;;;4953048;28;20424;-72
2021/09/03 13:38:37;;;;;;;11.77;6.50;;;;;;;;;;4937508;29;20391;-71
2021/09/03 13:41:03;;;;;;;12.13;6.20;;;;;;;;;;4954409;29;20031;-72
2021/09/03 13:43:28;;;;;;;9.35;5.63;;;;;;;;;;4954447;29;20475;-72
2021/09/03 13:45:54;;;;;;;12.68;7.22;;;;;;;;;;4954346;29;20030;-73
2021/09/03 13:48:19;;;;;;;14.50;6.70;;;;;;;;;;4954806;29;20039;-72
2021/09/03 13:50:45;;;;;;;12.80;6.32;;;;;;;;;;4954798;29;20023;-72
2021/09/03 13:53:12;;;;;;;13.40;6.05;;;;;;;;;;4954989;29;20031;-73
2021/09/03 13:55:38;;;;;;;13.82;6.90;;;;;;;;;;4954834;29;20023;-72
2021/09/03 13:58:04;;;;;;;13.00;6.80;;;;;;;;;;4954993;29;20495;-72
2021/09/03 14:00:30;;;;;;;10.48;6.85;;;;;;;;;;4954504;29;20023;-73
2021/09/03 14:02:55;;;;;;;9.68;7.18;;;;;;;;;;4954156;29;20498;-73
2021/09/03 14:05:21;;;;;;;15.55;8.65;;;;;;;;;;4937134;29;20519;-72
2021/09/03 14:07:47;;;;;;;17.45;7.82;;;;;;;;;;4954339;29;20058;-74
2021/09/03 14:10:13;;;;;;;10.88;7.20;;;;;;;;;;4953505;29;20029;-74
2021/09/03 14:12:38;;;;;;;13.55;7.63;;;;;;;;;;4954777;29;20027;-72
2021/09/03 14:15:05;;;;;;;19.33;7.93;;;;;;;;;;4952625;29;20388;-73
2021/09/03 14:17:30;;;;;;;13.63;7.07;;;;;;;;;;4936961;29;20049;-73
2021/09/03 14:19:56;;;;;;;9.50;6.15;;;;;;;;;;4936798;29;20452;-74
2021/09/03 14:22:21;;;;;;;9.93;6.25;;;;;;;;;;4944377;29;20058;-72
2021/09/03 14:24:46;;;;;;;10.13;6.05;;;;;;;;;;4953981;29;20046;-73
2021/09/03 14:27:12;;;;;;;10.25;6.53;;;;;;;;;;4953626;29;20027;-73
2021/09/03 14:29:39;;;;;;;10.68;6.60;;;;;;;;;;4954161;29;20031;-73